sensor_id;sensor_type;location;lat;lon;timestamp;P1;durP1;ratioP1;P2;durP2;ratioP2
83447;SDS011;73376;45.472;-73.568;2024-01-25T00:01:54;18.05;;;7.15;;
83447;SDS011;73376;45.472;-73.568;2024-01-25T00:04:20;15.37;;;6.83;;
83447;SDS011;73376;45.472;-73.568;2024-01-25T00:06:46;17.37;;;7.40;;
83447;SDS011;73376;45.472;-73.568;2024-01-25T00:09:12;19.23;;;7.23;;
83447;SDS011;73376;45.472;-73.568;2024-01-25T00:11:38;18.70;;;7.67;;
83447;SDS011;73376;45.472;-73.568;2024-01-25T00:14:04;19.20;;;8.17;;
83447;SDS011;73376;45.472;-73.568;2024-01-25T00:16:30;18.50;;;7.80;;
83447;SDS011;73376;45.472;-73.568;2024-01-25T00:18:56;15.90;;;7.38;;
83447;SDS011;73376;45.472;-73.568;2024-01-25T00:21:22;13.40;;;7.17;;
83447;SDS011;73376;45.472;-73.568;2024-01-25T00:23:48;19.00;;;8.20;;
83447;SDS011;73376;45.472;-73.568;2024-01-25T00:26:14;20.15;;;7.60;;
83447;SDS011;73376;45.472;-73.568;2024-01-25T00:28:40;18.67;;;8.20;;
83447;SDS011;73376;45.472;-73.568;2024-01-25T00:31:06;16.53;;;8.20;;
83447;SDS011;73376;45.472;-73.568;2024-01-25T00:33:32;17.40;;;7.77;;
83447;SDS011;73376;45.472;-73.568;2024-01-25T00:35:58;18.13;;;8.13;;
83447;SDS011;73376;45.472;-73.568;2024-01-25T00:38:24;14.85;;;7.68;;
83447;SDS011;73376;45.472;-73.568;2024-01-25T00:40:53;17.90;;;8.03;;
83447;SDS011;73376;45.472;-73.568;2024-01-25T00:43:19;18.17;;;8.65;;
83447;SDS011;73376;45.472;-73.568;2024-01-25T00:45:46;19.03;;;8.87;;
83447;SDS011;73376;45.472;-73.568;2024-01-25T00:48:12;17.20;;;8.02;;
83447;SDS011;73376;45.472;-73.568;2024-01-25T00:50:38;19.50;;;8.97;;
83447;SDS011;73376;45.472;-73.568;2024-01-25T00:53:04;19.83;;;8.73;;
83447;SDS011;73376;45.472;-73.568;2024-01-25T00:55:31;24.27;;;10.33;;
83447;SDS011;73376;45.472;-73.568;2024-01-25T00:57:57;19.30;;;8.47;;
83447;SDS011;73376;45.472;-73.568;2024-01-25T01:00:26;25.08;;;9.30;;
83447;SDS011;73376;45.472;-73.568;2024-01-25T01:02:52;20.23;;;8.77;;
83447;SDS011;73376;45.472;-73.568;2024-01-25T01:05:19;20.10;;;8.30;;
83447;SDS011;73376;45.472;-73.568;2024-01-25T01:07:46;15.80;;;8.52;;
83447;SDS011;73376;45.472;-73.568;2024-01-25T01:10:12;15.93;;;8.37;;
83447;SDS011;73376;45.472;-73.568;2024-01-25T01:12:39;17.43;;;8.57;;
83447;SDS011;73376;45.472;-73.568;2024-01-25T01:15:05;16.00;;;8.37;;
83447;SDS011;73376;45.472;-73.568;2024-01-25T01:17:31;20.67;;;9.50;;
83447;SDS011;73376;45.472;-73.568;2024-01-25T01:19:57;16.47;;;8.30;;
83447;SDS011;73376;45.472;-73.568;2024-01-25T01:22:23;17.70;;;8.27;;
83447;SDS011;73376;45.472;-73.568;2024-01-25T01:24:49;20.90;;;9.10;;
83447;SDS011;73376;45.472;-73.568;2024-01-25T01:27:16;18.03;;;10.00;;
83447;SDS011;73376;45.472;-73.568;2024-01-25T01:29:41;18.67;;;9.17;;
83447;SDS011;73376;45.472;-73.568;2024-01-25T01:32:07;18.63;;;8.53;;
83447;SDS011;73376;45.472;-73.568;2024-01-25T01:34:36;20.33;;;9.63;;
83447;SDS011;73376;45.472;-73.568;2024-01-25T01:37:02;20.77;;;9.87;;
83447;SDS011;73376;45.472;-73.568;2024-01-25T01:39:28;20.50;;;9.47;;
83447;SDS011;73376;45.472;-73.568;2024-01-25T01:41:56;21.90;;;10.83;;
83447;SDS011;73376;45.472;-73.568;2024-01-25T01:44:22;20.27;;;10.40;;
83447;SDS011;73376;45.472;-73.568;2024-01-25T01:46:48;19.17;;;9.97;;
83447;SDS011;73376;45.472;-73.568;2024-01-25T01:49:17;21.47;;;10.17;;
83447;SDS011;73376;45.472;-73.568;2024-01-25T01:51:44;18.47;;;10.47;;
83447;SDS011;73376;45.472;-73.568;2024-01-25T01:54:10;21.13;;;10.27;;
83447;SDS011;73376;45.472;-73.568;2024-01-25T01:56:37;22.37;;;10.17;;
83447;SDS011;73376;45.472;-73.568;2024-01-25T01:59:05;25.07;;;10.90;;
83447;SDS011;73376;45.472;-73.568;2024-01-25T02:01:35;20.40;;;10.07;;
83447;SDS011;73376;45.472;-73.568;2024-01-25T02:04:01;20.30;;;10.33;;
83447;SDS011;73376;45.472;-73.568;2024-01-25T02:06:27;21.73;;;10.30;;
83447;SDS011;73376;45.472;-73.568;2024-01-25T02:08:53;23.03;;;11.07;;
83447;SDS011;73376;45.472;-73.568;2024-01-25T02:11:21;19.57;;;10.03;;
83447;SDS011;73376;45.472;-73.568;2024-01-25T02:13:49;19.90;;;11.27;;
83447;SDS011;73376;45.472;-73.568;2024-01-25T02:16:19;26.70;;;10.23;;
83447;SDS011;73376;45.472;-73.568;2024-01-25T02:18:45;20.57;;;10.43;;
83447;SDS011;73376;45.472;-73.568;2024-01-25T02:21:15;20.40;;;10.00;;
83447;SDS011;73376;45.472;-73.568;2024-01-25T02:23:44;18.02;;;10.35;;
83447;SDS011;73376;45.472;-73.568;2024-01-25T02:26:10;17.67;;;9.63;;
83447;SDS011;73376;45.472;-73.568;2024-01-25T02:28:39;21.03;;;10.67;;
83447;SDS011;73376;45.472;-73.568;2024-01-25T02:31:07;17.88;;;9.38;;
83447;SDS011;73376;45.472;-73.568;2024-01-25T02:33:33;19.60;;;9.70;;
83447;SDS011;73376;45.472;-73.568;2024-01-25T02:35:59;19.03;;;9.87;;
83447;SDS011;73376;45.472;-73.568;2024-01-25T02:38:27;22.70;;;10.30;;
83447;SDS011;73376;45.472;-73.568;2024-01-25T02:40:56;18.53;;;9.30;;
83447;SDS011;73376;45.472;-73.568;2024-01-25T02:43:22;17.17;;;9.50;;
83447;SDS011;73376;45.472;-73.568;2024-01-25T02:45:48;26.80;;;11.80;;
83447;SDS011;73376;45.472;-73.568;2024-01-25T02:48:14;19.60;;;9.67;;
83447;SDS011;73376;45.472;-73.568;2024-01-25T02:50:40;20.10;;;9.90;;
83447;SDS011;73376;45.472;-73.568;2024-01-25T02:53:06;18.13;;;9.33;;
83447;SDS011;73376;45.472;-73.568;2024-01-25T02:55:32;21.13;;;9.90;;
83447;SDS011;73376;45.472;-73.568;2024-01-25T02:58:01;23.27;;;10.60;;
83447;SDS011;73376;45.472;-73.568;2024-01-25T03:00:27;18.07;;;10.17;;
83447;SDS011;73376;45.472;-73.568;2024-01-25T03:02:55;18.20;;;9.40;;
83447;SDS011;73376;45.472;-73.568;2024-01-25T03:05:21;21.17;;;10.63;;
83447;SDS011;73376;45.472;-73.568;2024-01-25T03:07:47;21.77;;;9.40;;
83447;SDS011;73376;45.472;-73.568;2024-01-25T03:10:13;25.13;;;9.63;;
83447;SDS011;73376;45.472;-73.568;2024-01-25T03:12:41;18.83;;;10.77;;
83447;SDS011;73376;45.472;-73.568;2024-01-25T03:15:08;19.97;;;10.77;;
83447;SDS011;73376;45.472;-73.568;2024-01-25T03:17:37;17.50;;;9.57;;
83447;SDS011;73376;45.472;-73.568;2024-01-25T03:20:03;19.77;;;11.07;;
83447;SDS011;73376;45.472;-73.568;2024-01-25T03:22:30;18.93;;;9.57;;
83447;SDS011;73376;45.472;-73.568;2024-01-25T03:24:56;18.60;;;9.67;;
83447;SDS011;73376;45.472;-73.568;2024-01-25T03:27:24;20.53;;;10.40;;
83447;SDS011;73376;45.472;-73.568;2024-01-25T03:29:50;18.37;;;9.87;;
83447;SDS011;73376;45.472;-73.568;2024-01-25T03:32:16;22.93;;;10.70;;
83447;SDS011;73376;45.472;-73.568;2024-01-25T03:34:42;20.07;;;10.33;;
83447;SDS011;73376;45.472;-73.568;2024-01-25T03:37:08;25.33;;;11.07;;
83447;SDS011;73376;45.472;-73.568;2024-01-25T03:39:34;22.13;;;11.17;;
83447;SDS011;73376;45.472;-73.568;2024-01-25T03:42:00;19.00;;;10.43;;
83447;SDS011;73376;45.472;-73.568;2024-01-25T03:44:26;20.87;;;11.33;;
83447;SDS011;73376;45.472;-73.568;2024-01-25T03:46:52;26.17;;;12.37;;
83447;SDS011;73376;45.472;-73.568;2024-01-25T03:49:21;24.70;;;13.17;;
83447;SDS011;73376;45.472;-73.568;2024-01-25T03:51:48;24.73;;;11.93;;
83447;SDS011;73376;45.472;-73.568;2024-01-25T03:54:15;22.53;;;12.80;;
83447;SDS011;73376;45.472;-73.568;2024-01-25T03:56:41;27.67;;;12.47;;
83447;SDS011;73376;45.472;-73.568;2024-01-25T03:59:10;22.40;;;11.93;;
83447;SDS011;73376;45.472;-73.568;2024-01-25T04:01:44;27.87;;;12.80;;
83447;SDS011;73376;45.472;-73.568;2024-01-25T04:04:12;23.97;;;12.67;;
83447;SDS011;73376;45.472;-73.568;2024-01-25T04:06:42;25.10;;;12.20;;
83447;SDS011;73376;45.472;-73.568;2024-01-25T04:09:09;25.20;;;12.67;;
83447;SDS011;73376;45.472;-73.568;2024-01-25T04:11:36;26.63;;;13.20;;
83447;SDS011;73376;45.472;-73.568;2024-01-25T04:14:03;24.13;;;12.27;;
83447;SDS011;73376;45.472;-73.568;2024-01-25T04:16:30;27.10;;;12.10;;
83447;SDS011;73376;45.472;-73.568;2024-01-25T04:18:56;28.33;;;14.10;;
83447;SDS011;73376;45.472;-73.568;2024-01-25T04:21:25;25.10;;;12.63;;
83447;SDS011;73376;45.472;-73.568;2024-01-25T04:23:52;24.83;;;12.63;;
83447;SDS011;73376;45.472;-73.568;2024-01-25T04:26:18;22.73;;;13.30;;
83447;SDS011;73376;45.472;-73.568;2024-01-25T04:28:44;24.07;;;12.47;;
83447;SDS011;73376;45.472;-73.568;2024-01-25T04:31:10;20.23;;;11.57;;
83447;SDS011;73376;45.472;-73.568;2024-01-25T04:33:37;21.47;;;11.97;;
83447;SDS011;73376;45.472;-73.568;2024-01-25T04:36:05;22.60;;;12.00;;
83447;SDS011;73376;45.472;-73.568;2024-01-25T04:38:31;24.30;;;12.80;;
83447;SDS011;73376;45.472;-73.568;2024-01-25T04:40:57;22.07;;;12.23;;
83447;SDS011;73376;45.472;-73.568;2024-01-25T04:43:23;21.27;;;11.43;;
83447;SDS011;73376;45.472;-73.568;2024-01-25T04:45:49;24.90;;;12.60;;
83447;SDS011;73376;45.472;-73.568;2024-01-25T04:48:15;23.83;;;12.47;;
83447;SDS011;73376;45.472;-73.568;2024-01-25T04:50:41;24.60;;;12.70;;
83447;SDS011;73376;45.472;-73.568;2024-01-25T04:53:07;23.60;;;12.73;;
83447;SDS011;73376;45.472;-73.568;2024-01-25T04:55:33;25.17;;;12.43;;
83447;SDS011;73376;45.472;-73.568;2024-01-25T04:57:59;23.57;;;12.83;;
83447;SDS011;73376;45.472;-73.568;2024-01-25T05:00:25;22.20;;;12.13;;
83447;SDS011;73376;45.472;-73.568;2024-01-25T05:02:51;26.27;;;13.17;;
83447;SDS011;73376;45.472;-73.568;2024-01-25T05:05:17;29.57;;;13.60;;
83447;SDS011;73376;45.472;-73.568;2024-01-25T05:07:46;23.73;;;12.27;;
83447;SDS011;73376;45.472;-73.568;2024-01-25T05:10:11;24.80;;;12.33;;
83447;SDS011;73376;45.472;-73.568;2024-01-25T05:12:37;23.63;;;12.23;;
83447;SDS011;73376;45.472;-73.568;2024-01-25T05:15:06;22.87;;;12.03;;
83447;SDS011;73376;45.472;-73.568;2024-01-25T05:17:33;26.77;;;12.27;;
83447;SDS011;73376;45.472;-73.568;2024-01-25T05:19:59;22.60;;;11.77;;
83447;SDS011;73376;45.472;-73.568;2024-01-25T05:22:25;25.10;;;12.27;;
83447;SDS011;73376;45.472;-73.568;2024-01-25T05:24:51;25.03;;;12.30;;
83447;SDS011;73376;45.472;-73.568;2024-01-25T05:27:17;25.70;;;11.57;;
83447;SDS011;73376;45.472;-73.568;2024-01-25T05:29:42;25.77;;;12.07;;
83447;SDS011;73376;45.472;-73.568;2024-01-25T05:32:08;23.50;;;11.47;;
83447;SDS011;73376;45.472;-73.568;2024-01-25T05:34:34;24.60;;;12.50;;
83447;SDS011;73376;45.472;-73.568;2024-01-25T05:37:03;26.03;;;12.43;;
83447;SDS011;73376;45.472;-73.568;2024-01-25T05:39:29;29.33;;;12.73;;
83447;SDS011;73376;45.472;-73.568;2024-01-25T05:41:55;25.87;;;13.27;;
83447;SDS011;73376;45.472;-73.568;2024-01-25T05:44:20;25.53;;;12.70;;
83447;SDS011;73376;45.472;-73.568;2024-01-25T05:46:46;25.33;;;13.43;;
83447;SDS011;73376;45.472;-73.568;2024-01-25T05:49:15;24.57;;;12.90;;
83447;SDS011;73376;45.472;-73.568;2024-01-25T05:51:41;24.93;;;12.87;;
83447;SDS011;73376;45.472;-73.568;2024-01-25T05:54:07;23.50;;;12.63;;
83447;SDS011;73376;45.472;-73.568;2024-01-25T05:56:38;20.87;;;11.77;;
83447;SDS011;73376;45.472;-73.568;2024-01-25T05:59:04;26.93;;;12.87;;
83447;SDS011;73376;45.472;-73.568;2024-01-25T06:01:30;21.83;;;11.83;;
83447;SDS011;73376;45.472;-73.568;2024-01-25T06:03:55;19.43;;;10.83;;
83447;SDS011;73376;45.472;-73.568;2024-01-25T06:06:21;24.20;;;11.63;;
83447;SDS011;73376;45.472;-73.568;2024-01-25T06:08:47;20.90;;;10.93;;
83447;SDS011;73376;45.472;-73.568;2024-01-25T06:11:18;23.87;;;10.83;;
83447;SDS011;73376;45.472;-73.568;2024-01-25T06:13:44;19.70;;;10.83;;
83447;SDS011;73376;45.472;-73.568;2024-01-25T06:16:12;20.03;;;11.17;;
83447;SDS011;73376;45.472;-73.568;2024-01-25T06:18:38;23.00;;;10.57;;
83447;SDS011;73376;45.472;-73.568;2024-01-25T06:21:04;20.53;;;11.40;;
83447;SDS011;73376;45.472;-73.568;2024-01-25T06:23:30;22.17;;;11.37;;
83447;SDS011;73376;45.472;-73.568;2024-01-25T06:25:56;19.43;;;11.17;;
83447;SDS011;73376;45.472;-73.568;2024-01-25T06:28:22;23.03;;;10.83;;
83447;SDS011;73376;45.472;-73.568;2024-01-25T06:30:51;20.43;;;11.17;;
83447;SDS011;73376;45.472;-73.568;2024-01-25T06:33:17;22.87;;;11.33;;
83447;SDS011;73376;45.472;-73.568;2024-01-25T06:35:43;20.77;;;11.23;;
83447;SDS011;73376;45.472;-73.568;2024-01-25T06:38:09;21.37;;;11.30;;
83447;SDS011;73376;45.472;-73.568;2024-01-25T06:40:34;22.13;;;11.17;;
83447;SDS011;73376;45.472;-73.568;2024-01-25T06:43:00;20.60;;;11.07;;
83447;SDS011;73376;45.472;-73.568;2024-01-25T06:45:29;19.43;;;10.70;;
83447;SDS011;73376;45.472;-73.568;2024-01-25T06:47:55;19.80;;;10.43;;
83447;SDS011;73376;45.472;-73.568;2024-01-25T06:50:21;19.33;;;11.33;;
83447;SDS011;73376;45.472;-73.568;2024-01-25T06:52:47;17.97;;;10.53;;
83447;SDS011;73376;45.472;-73.568;2024-01-25T06:55:13;21.03;;;10.63;;
83447;SDS011;73376;45.472;-73.568;2024-01-25T06:57:39;22.17;;;11.57;;
83447;SDS011;73376;45.472;-73.568;2024-01-25T07:00:05;20.50;;;11.37;;
83447;SDS011;73376;45.472;-73.568;2024-01-25T07:02:31;22.23;;;11.27;;
83447;SDS011;73376;45.472;-73.568;2024-01-25T07:04:57;20.00;;;11.00;;
83447;SDS011;73376;45.472;-73.568;2024-01-25T07:07:23;23.20;;;12.20;;
83447;SDS011;73376;45.472;-73.568;2024-01-25T07:09:51;20.47;;;10.83;;
83447;SDS011;73376;45.472;-73.568;2024-01-25T07:12:17;20.30;;;12.00;;
83447;SDS011;73376;45.472;-73.568;2024-01-25T07:14:46;20.80;;;12.27;;
83447;SDS011;73376;45.472;-73.568;2024-01-25T07:17:12;22.93;;;12.93;;
83447;SDS011;73376;45.472;-73.568;2024-01-25T07:19:37;25.40;;;13.17;;
83447;SDS011;73376;45.472;-73.568;2024-01-25T07:22:06;22.70;;;12.10;;
83447;SDS011;73376;45.472;-73.568;2024-01-25T07:24:32;26.20;;;11.90;;
83447;SDS011;73376;45.472;-73.568;2024-01-25T07:26:58;25.37;;;11.93;;
83447;SDS011;73376;45.472;-73.568;2024-01-25T07:29:24;21.87;;;11.40;;
83447;SDS011;73376;45.472;-73.568;2024-01-25T07:31:52;22.10;;;12.67;;
83447;SDS011;73376;45.472;-73.568;2024-01-25T07:34:18;22.20;;;12.07;;
83447;SDS011;73376;45.472;-73.568;2024-01-25T07:36:44;24.93;;;13.30;;
83447;SDS011;73376;45.472;-73.568;2024-01-25T07:39:12;22.43;;;12.40;;
83447;SDS011;73376;45.472;-73.568;2024-01-25T07:41:38;24.30;;;12.63;;
83447;SDS011;73376;45.472;-73.568;2024-01-25T07:44:04;26.80;;;13.57;;
83447;SDS011;73376;45.472;-73.568;2024-01-25T07:46:31;26.53;;;14.23;;
83447;SDS011;73376;45.472;-73.568;2024-01-25T07:48:57;23.87;;;13.50;;
83447;SDS011;73376;45.472;-73.568;2024-01-25T07:51:25;23.43;;;14.03;;
83447;SDS011;73376;45.472;-73.568;2024-01-25T07:53:54;28.73;;;13.63;;
83447;SDS011;73376;45.472;-73.568;2024-01-25T07:56:20;29.00;;;14.70;;
83447;SDS011;73376;45.472;-73.568;2024-01-25T07:58:47;27.23;;;14.07;;
83447;SDS011;73376;45.472;-73.568;2024-01-25T08:01:19;23.70;;;13.60;;
83447;SDS011;73376;45.472;-73.568;2024-01-25T08:03:48;28.27;;;14.40;;
83447;SDS011;73376;45.472;-73.568;2024-01-25T08:06:14;33.17;;;13.97;;
83447;SDS011;73376;45.472;-73.568;2024-01-25T08:08:40;23.57;;;13.20;;
83447;SDS011;73376;45.472;-73.568;2024-01-25T08:11:06;28.13;;;12.63;;
83447;SDS011;73376;45.472;-73.568;2024-01-25T08:13:33;26.93;;;14.43;;
83447;SDS011;73376;45.472;-73.568;2024-01-25T08:15:59;24.03;;;13.23;;
83447;SDS011;73376;45.472;-73.568;2024-01-25T08:18:25;24.93;;;13.90;;
83447;SDS011;73376;45.472;-73.568;2024-01-25T08:20:54;27.37;;;13.53;;
83447;SDS011;73376;45.472;-73.568;2024-01-25T08:23:22;27.00;;;12.77;;
83447;SDS011;73376;45.472;-73.568;2024-01-25T08:25:48;26.17;;;13.70;;
83447;SDS011;73376;45.472;-73.568;2024-01-25T08:28:14;27.23;;;14.27;;
83447;SDS011;73376;45.472;-73.568;2024-01-25T08:30:41;26.47;;;13.40;;
83447;SDS011;73376;45.472;-73.568;2024-01-25T08:33:07;26.33;;;13.33;;
83447;SDS011;73376;45.472;-73.568;2024-01-25T08:35:33;24.10;;;11.87;;
83447;SDS011;73376;45.472;-73.568;2024-01-25T08:37:59;24.63;;;13.17;;
83447;SDS011;73376;45.472;-73.568;2024-01-25T08:40:28;29.17;;;13.73;;
83447;SDS011;73376;45.472;-73.568;2024-01-25T08:42:57;22.90;;;11.80;;
83447;SDS011;73376;45.472;-73.568;2024-01-25T08:45:23;23.73;;;12.83;;
83447;SDS011;73376;45.472;-73.568;2024-01-25T08:47:49;25.33;;;12.30;;
83447;SDS011;73376;45.472;-73.568;2024-01-25T08:50:16;29.17;;;12.40;;
83447;SDS011;73376;45.472;-73.568;2024-01-25T08:52:43;23.73;;;11.80;;
83447;SDS011;73376;45.472;-73.568;2024-01-25T08:55:09;29.23;;;12.37;;
83447;SDS011;73376;45.472;-73.568;2024-01-25T08:57:35;24.77;;;12.17;;
83447;SDS011;73376;45.472;-73.568;2024-01-25T09:00:02;25.77;;;12.17;;
83447;SDS011;73376;45.472;-73.568;2024-01-25T09:02:33;24.67;;;12.53;;
83447;SDS011;73376;45.472;-73.568;2024-01-25T09:04:59;28.23;;;13.53;;
83447;SDS011;73376;45.472;-73.568;2024-01-25T09:07:25;22.67;;;11.33;;
83447;SDS011;73376;45.472;-73.568;2024-01-25T09:09:51;26.97;;;12.13;;
83447;SDS011;73376;45.472;-73.568;2024-01-25T09:12:19;25.57;;;12.47;;
83447;SDS011;73376;45.472;-73.568;2024-01-25T09:14:45;24.03;;;12.23;;
83447;SDS011;73376;45.472;-73.568;2024-01-25T09:17:11;23.70;;;12.13;;
83447;SDS011;73376;45.472;-73.568;2024-01-25T09:19:39;26.20;;;12.33;;
83447;SDS011;73376;45.472;-73.568;2024-01-25T09:22:06;23.33;;;12.60;;
83447;SDS011;73376;45.472;-73.568;2024-01-25T09:24:33;24.80;;;12.37;;
83447;SDS011;73376;45.472;-73.568;2024-01-25T09:27:01;28.23;;;12.20;;
83447;SDS011;73376;45.472;-73.568;2024-01-25T09:29:28;23.33;;;11.50;;
83447;SDS011;73376;45.472;-73.568;2024-01-25T09:31:54;25.17;;;12.63;;
83447;SDS011;73376;45.472;-73.568;2024-01-25T09:34:20;24.57;;;11.47;;
83447;SDS011;73376;45.472;-73.568;2024-01-25T09:36:46;26.77;;;11.80;;
83447;SDS011;73376;45.472;-73.568;2024-01-25T09:39:12;20.17;;;11.23;;
83447;SDS011;73376;45.472;-73.568;2024-01-25T09:41:42;27.07;;;12.43;;
83447;SDS011;73376;45.472;-73.568;2024-01-25T09:44:08;24.60;;;12.47;;
83447;SDS011;73376;45.472;-73.568;2024-01-25T09:46:34;23.63;;;11.57;;
83447;SDS011;73376;45.472;-73.568;2024-01-25T09:49:03;21.87;;;11.57;;
83447;SDS011;73376;45.472;-73.568;2024-01-25T09:51:32;24.97;;;11.83;;
83447;SDS011;73376;45.472;-73.568;2024-01-25T09:54:05;26.00;;;11.80;;
83447;SDS011;73376;45.472;-73.568;2024-01-25T09:56:31;25.17;;;11.43;;
83447;SDS011;73376;45.472;-73.568;2024-01-25T09:58:58;32.83;;;12.40;;
83447;SDS011;73376;45.472;-73.568;2024-01-25T10:01:25;25.23;;;11.63;;
83447;SDS011;73376;45.472;-73.568;2024-01-25T10:03:52;24.67;;;11.83;;
83447;SDS011;73376;45.472;-73.568;2024-01-25T10:06:18;23.43;;;11.40;;
83447;SDS011;73376;45.472;-73.568;2024-01-25T10:08:45;24.70;;;11.60;;
83447;SDS011;73376;45.472;-73.568;2024-01-25T10:11:11;20.57;;;11.10;;
83447;SDS011;73376;45.472;-73.568;2024-01-25T10:13:42;35.37;;;12.50;;
83447;SDS011;73376;45.472;-73.568;2024-01-25T10:16:13;23.77;;;12.23;;
83447;SDS011;73376;45.472;-73.568;2024-01-25T10:18:40;27.43;;;11.23;;
83447;SDS011;73376;45.472;-73.568;2024-01-25T10:21:08;28.87;;;11.57;;
83447;SDS011;73376;45.472;-73.568;2024-01-25T10:23:35;24.83;;;11.13;;
83447;SDS011;73376;45.472;-73.568;2024-01-25T10:26:03;26.20;;;11.33;;
83447;SDS011;73376;45.472;-73.568;2024-01-25T10:28:29;25.87;;;11.47;;
83447;SDS011;73376;45.472;-73.568;2024-01-25T10:30:57;23.53;;;11.37;;
83447;SDS011;73376;45.472;-73.568;2024-01-25T10:33:25;31.77;;;12.43;;
83447;SDS011;73376;45.472;-73.568;2024-01-25T10:35:55;29.10;;;12.30;;
83447;SDS011;73376;45.472;-73.568;2024-01-25T10:38:27;34.00;;;12.67;;
83447;SDS011;73376;45.472;-73.568;2024-01-25T10:41:00;29.60;;;13.32;;
83447;SDS011;73376;45.472;-73.568;2024-01-25T10:43:28;32.87;;;12.20;;
83447;SDS011;73376;45.472;-73.568;2024-01-25T10:45:57;24.60;;;11.63;;
83447;SDS011;73376;45.472;-73.568;2024-01-25T10:48:27;35.27;;;11.80;;
83447;SDS011;73376;45.472;-73.568;2024-01-25T10:50:57;22.33;;;11.13;;
83447;SDS011;73376;45.472;-73.568;2024-01-25T10:53:27;31.10;;;12.33;;
83447;SDS011;73376;45.472;-73.568;2024-01-25T10:55:57;37.43;;;12.63;;
83447;SDS011;73376;45.472;-73.568;2024-01-25T10:58:24;30.63;;;12.30;;
83447;SDS011;73376;45.472;-73.568;2024-01-25T11:00:55;38.35;;;12.13;;
83447;SDS011;73376;45.472;-73.568;2024-01-25T11:03:29;33.97;;;11.93;;
83447;SDS011;73376;45.472;-73.568;2024-01-25T11:06:05;33.03;;;11.73;;
83447;SDS011;73376;45.472;-73.568;2024-01-25T11:08:34;24.87;;;10.53;;
83447;SDS011;73376;45.472;-73.568;2024-01-25T11:11:05;29.03;;;11.33;;
83447;SDS011;73376;45.472;-73.568;2024-01-25T11:13:33;27.70;;;10.60;;
83447;SDS011;73376;45.472;-73.568;2024-01-25T11:15:59;30.00;;;12.40;;
83447;SDS011;73376;45.472;-73.568;2024-01-25T11:18:54;21.40;;;10.53;;
83447;SDS011;73376;45.472;-73.568;2024-01-25T11:24:11;33.40;;;11.77;;
83447;SDS011;73376;45.472;-73.568;2024-01-25T11:26:54;28.63;;;11.10;;
83447;SDS011;73376;45.472;-73.568;2024-01-25T11:29:21;34.90;;;14.90;;
83447;SDS011;73376;45.472;-73.568;2024-01-25T11:31:49;31.60;;;12.33;;
83447;SDS011;73376;45.472;-73.568;2024-01-25T11:34:17;32.60;;;11.93;;
83447;SDS011;73376;45.472;-73.568;2024-01-25T11:36:43;32.77;;;11.80;;
83447;SDS011;73376;45.472;-73.568;2024-01-25T11:39:13;30.07;;;11.47;;
83447;SDS011;73376;45.472;-73.568;2024-01-25T11:41:40;34.90;;;12.17;;
83447;SDS011;73376;45.472;-73.568;2024-01-25T11:44:09;34.10;;;11.97;;
83447;SDS011;73376;45.472;-73.568;2024-01-25T11:46:35;28.87;;;10.43;;
83447;SDS011;73376;45.472;-73.568;2024-01-25T11:49:01;28.83;;;11.50;;
83447;SDS011;73376;45.472;-73.568;2024-01-25T11:51:27;28.63;;;10.53;;
83447;SDS011;73376;45.472;-73.568;2024-01-25T11:53:53;28.30;;;11.37;;
83447;SDS011;73376;45.472;-73.568;2024-01-25T11:56:40;32.43;;;11.60;;
83447;SDS011;73376;45.472;-73.568;2024-01-25T11:59:06;26.77;;;11.43;;
83447;SDS011;73376;45.472;-73.568;2024-01-25T12:01:33;31.10;;;11.00;;
83447;SDS011;73376;45.472;-73.568;2024-01-25T12:03:59;31.43;;;11.70;;
83447;SDS011;73376;45.472;-73.568;2024-01-25T12:06:26;23.23;;;11.67;;
83447;SDS011;73376;45.472;-73.568;2024-01-25T12:08:55;32.17;;;13.33;;
83447;SDS011;73376;45.472;-73.568;2024-01-25T12:11:33;35.67;;;14.30;;
83447;SDS011;73376;45.472;-73.568;2024-01-25T12:13:59;29.83;;;14.20;;
83447;SDS011;73376;45.472;-73.568;2024-01-25T12:16:25;31.27;;;12.80;;
83447;SDS011;73376;45.472;-73.568;2024-01-25T12:18:54;32.37;;;12.50;;
83447;SDS011;73376;45.472;-73.568;2024-01-25T12:21:20;33.23;;;12.80;;
83447;SDS011;73376;45.472;-73.568;2024-01-25T12:23:46;39.63;;;13.00;;
83447;SDS011;73376;45.472;-73.568;2024-01-25T12:26:12;28.47;;;12.33;;
83447;SDS011;73376;45.472;-73.568;2024-01-25T12:28:41;35.90;;;13.87;;
83447;SDS011;73376;45.472;-73.568;2024-01-25T12:31:07;26.07;;;12.10;;
83447;SDS011;73376;45.472;-73.568;2024-01-25T12:33:34;35.73;;;12.30;;
83447;SDS011;73376;45.472;-73.568;2024-01-25T12:36:03;28.50;;;11.77;;
83447;SDS011;73376;45.472;-73.568;2024-01-25T12:38:31;33.33;;;11.97;;
83447;SDS011;73376;45.472;-73.568;2024-01-25T12:41:00;33.97;;;12.38;;
83447;SDS011;73376;45.472;-73.568;2024-01-25T12:43:27;28.30;;;11.63;;
83447;SDS011;73376;45.472;-73.568;2024-01-25T12:45:54;27.47;;;11.70;;
83447;SDS011;73376;45.472;-73.568;2024-01-25T12:48:20;32.37;;;12.10;;
83447;SDS011;73376;45.472;-73.568;2024-01-25T12:50:48;32.03;;;12.03;;
83447;SDS011;73376;45.472;-73.568;2024-01-25T12:53:14;31.50;;;12.60;;
83447;SDS011;73376;45.472;-73.568;2024-01-25T12:55:43;31.40;;;11.90;;
83447;SDS011;73376;45.472;-73.568;2024-01-25T12:58:09;28.60;;;11.80;;
83447;SDS011;73376;45.472;-73.568;2024-01-25T13:00:35;33.13;;;12.57;;
83447;SDS011;73376;45.472;-73.568;2024-01-25T13:03:01;30.87;;;11.90;;
83447;SDS011;73376;45.472;-73.568;2024-01-25T13:05:28;27.57;;;11.50;;
83447;SDS011;73376;45.472;-73.568;2024-01-25T13:07:54;26.27;;;11.33;;
83447;SDS011;73376;45.472;-73.568;2024-01-25T13:10:23;31.50;;;12.53;;
83447;SDS011;73376;45.472;-73.568;2024-01-25T13:12:49;26.87;;;11.83;;
83447;SDS011;73376;45.472;-73.568;2024-01-25T13:15:15;34.67;;;11.70;;
83447;SDS011;73376;45.472;-73.568;2024-01-25T13:17:41;29.80;;;11.13;;
83447;SDS011;73376;45.472;-73.568;2024-01-25T13:20:07;45.10;;;13.57;;
83447;SDS011;73376;45.472;-73.568;2024-01-25T13:22:34;32.33;;;11.40;;
83447;SDS011;73376;45.472;-73.568;2024-01-25T13:25:00;37.23;;;12.33;;
83447;SDS011;73376;45.472;-73.568;2024-01-25T13:27:27;34.03;;;11.77;;
83447;SDS011;73376;45.472;-73.568;2024-01-25T13:29:54;33.77;;;11.63;;
83447;SDS011;73376;45.472;-73.568;2024-01-25T13:32:22;27.67;;;11.80;;
83447;SDS011;73376;45.472;-73.568;2024-01-25T13:34:48;35.43;;;11.67;;
83447;SDS011;73376;45.472;-73.568;2024-01-25T13:37:14;38.13;;;13.63;;
83447;SDS011;73376;45.472;-73.568;2024-01-25T13:39:40;33.67;;;12.07;;
83447;SDS011;73376;45.472;-73.568;2024-01-25T13:42:06;42.03;;;13.77;;
83447;SDS011;73376;45.472;-73.568;2024-01-25T13:44:35;40.10;;;12.43;;
83447;SDS011;73376;45.472;-73.568;2024-01-25T13:47:01;35.67;;;13.07;;
83447;SDS011;73376;45.472;-73.568;2024-01-25T13:49:27;49.00;;;14.33;;
83447;SDS011;73376;45.472;-73.568;2024-01-25T13:51:53;41.50;;;14.20;;
83447;SDS011;73376;45.472;-73.568;2024-01-25T13:54:19;30.00;;;12.97;;
83447;SDS011;73376;45.472;-73.568;2024-01-25T13:56:45;34.57;;;13.10;;
83447;SDS011;73376;45.472;-73.568;2024-01-25T13:59:13;35.83;;;13.37;;
83447;SDS011;73376;45.472;-73.568;2024-01-25T14:01:39;39.00;;;13.47;;